Time;durP1;ratioP1;P1;durP2;ratioP2;P2;SDS_P1;SDS_P2;PMS_P1;PMS_P2;Temp;Humidity;BMP_temperature;BMP_pressure;BME280_temperature;BME280_humidity;BME280_pressure;Samples;Min_cycle;Max_cycle;Signal;HPM_P1;HPM_P2
2023/03/16 00:02:45;;;;;;;30.80;13.85;;;;;;;;;;6261734;28;20419;-59
2023/03/16 00:05:51;;;;;;;38.90;14.93;;;;;;;;;;6256594;28;20809;-54
2023/03/16 00:08:57;;;;;;;34.45;14.13;;;;;;;;;;6262296;28;20037;-60
2023/03/16 00:11:59;;;;;;;33.58;15.27;;;;;;;;;;6258839;28;20094;-55
2023/03/16 00:15:00;;;;;;;33.33;13.95;;;;;;;;;;6258736;28;20052;-53
2023/03/16 00:18:01;;;;;;;30.75;14.43;;;;;;;;;;6261922;28;20063;-52
2023/03/16 00:21:02;;;;;;;34.83;14.18;;;;;;;;;;6265159;28;20045;-52
2023/03/16 00:24:02;;;;;;;36.38;14.65;;;;;;;;;;6267343;28;20044;-58
2023/03/16 00:27:03;;;;;;;34.47;15.43;;;;;;;;;;6267644;28;20147;-58
2023/03/16 00:30:04;;;;;;;33.75;14.30;;;;;;;;;;6268720;28;20099;-59
2023/03/16 00:33:05;;;;;;;33.08;14.90;;;;;;;;;;6266834;28;20047;-55
2023/03/16 00:36:08;;;;;;;33.85;14.60;;;;;;;;;;6266709;28;20049;-56
2023/03/16 00:39:10;;;;;;;39.83;14.93;;;;;;;;;;6262744;28;20147;-54
2023/03/16 00:42:13;;;;;;;37.33;13.98;;;;;;;;;;6267762;28;20045;-54
2023/03/16 00:45:14;;;;;;;35.17;14.25;;;;;;;;;;6266547;28;20106;-58
2023/03/16 00:48:16;;;;;;;41.33;17.15;;;;;;;;;;6267569;28;20041;-54
2023/03/16 00:51:17;;;;;;;46.17;17.00;;;;;;;;;;6265590;28;20122;-57
2023/03/16 00:54:18;;;;;;;33.78;14.70;;;;;;;;;;6262114;28;20049;-51
2023/03/16 00:57:23;;;;;;;34.10;15.27;;;;;;;;;;6263520;28;20055;-60
2023/03/16 01:00:27;;;;;;;33.22;14.05;;;;;;;;;;6266715;28;20305;-55
2023/03/16 01:03:28;;;;;;;34.88;15.05;;;;;;;;;;6263384;28;20427;-53
2023/03/16 01:06:29;;;;;;;33.80;15.75;;;;;;;;;;6263659;28;20056;-57
2023/03/16 01:09:30;;;;;;;36.25;14.60;;;;;;;;;;6268157;28;20140;-54
2023/03/16 01:12:31;;;;;;;37.67;15.95;;;;;;;;;;6263774;28;20059;-55
2023/03/16 01:15:33;;;;;;;37.83;16.23;;;;;;;;;;6261286;28;20095;-52
2023/03/16 01:18:34;;;;;;;38.28;16.00;;;;;;;;;;6263216;28;20114;-51
2023/03/16 01:21:37;;;;;;;42.33;16.92;;;;;;;;;;6267564;28;20045;-57
2023/03/16 01:24:39;;;;;;;48.13;19.67;;;;;;;;;;6265776;28;20041;-52
2023/03/16 01:27:41;;;;;;;54.08;19.30;;;;;;;;;;6266634;28;20048;-55
2023/03/16 01:30:42;;;;;;;47.85;19.77;;;;;;;;;;6263716;28;20412;-56
2023/03/16 01:33:43;;;;;;;56.10;20.55;;;;;;;;;;6262943;28;20048;-55
2023/03/16 01:36:46;;;;;;;42.28;17.30;;;;;;;;;;6262389;28;20048;-58
2023/03/16 01:39:48;;;;;;;41.63;17.25;;;;;;;;;;6263366;28;20057;-55
2023/03/16 01:43:00;;;;;;;38.05;15.07;;;;;;;;;;6269968;28;20057;-57
2023/03/16 01:46:17;;;;;;;37.05;16.50;;;;;;;;;;6262645;28;20053;-58
2023/03/16 01:49:20;;;;;;;36.45;15.88;;;;;;;;;;6267282;28;20033;-53
2023/03/16 01:52:27;;;;;;;40.08;16.30;;;;;;;;;;6263243;28;20048;-57
2023/03/16 01:55:28;;;;;;;36.78;15.88;;;;;;;;;;6267094;28;20060;-53
2023/03/16 01:58:30;;;;;;;30.58;13.90;;;;;;;;;;6267105;28;20441;-57
2023/03/16 02:01:31;;;;;;;36.42;16.13;;;;;;;;;;6268147;28;20099;-59
2023/03/16 02:04:47;;;;;;;39.00;16.10;;;;;;;;;;6263058;28;20048;-52
2023/03/16 02:07:50;;;;;;;40.72;16.25;;;;;;;;;;6265266;28;20053;-51
2023/03/16 02:10:53;;;;;;;35.35;16.27;;;;;;;;;;6265419;28;20041;-53
2023/03/16 02:13:57;;;;;;;36.38;16.00;;;;;;;;;;6262192;28;20488;-60
2023/03/16 02:16:58;;;;;;;38.28;16.23;;;;;;;;;;6259278;28;20408;-59
2023/03/16 02:20:16;;;;;;;38.40;17.45;;;;;;;;;;6259366;28;20068;-57
2023/03/16 02:23:19;;;;;;;46.65;19.23;;;;;;;;;;6261089;28;20071;-58
2023/03/16 02:26:46;;;;;;;42.90;19.50;;;;;;;;;;6262443;28;20049;-58
2023/03/16 02:30:00;;;;;;;41.63;19.80;;;;;;;;;;6261968;28;20060;-59
2023/03/16 02:33:01;;;;;;;38.58;16.70;;;;;;;;;;6259435;28;20049;-59
2023/03/16 02:36:02;;;;;;;41.90;18.07;;;;;;;;;;6261811;28;20040;-60
2023/03/16 02:39:04;;;;;;;42.08;17.90;;;;;;;;;;6262446;28;20037;-54
2023/03/16 02:42:11;;;;;;;41.40;16.90;;;;;;;;;;6262265;28;20559;-57
2023/03/16 02:45:12;;;;;;;42.42;17.50;;;;;;;;;;6263420;28;20590;-58
2023/03/16 02:48:18;;;;;;;38.03;15.95;;;;;;;;;;6259466;28;20037;-55
2023/03/16 02:51:19;;;;;;;46.33;18.08;;;;;;;;;;6259501;28;20094;-55
2023/03/16 02:54:20;;;;;;;44.13;17.67;;;;;;;;;;6261762;28;20048;-57
2023/03/16 02:57:20;;;;;;;56.17;19.83;;;;;;;;;;6264194;28;20095;-60
2023/03/16 03:00:21;;;;;;;45.30;19.73;;;;;;;;;;6261569;28;20049;-59
2023/03/16 03:03:22;;;;;;;43.72;18.92;;;;;;;;;;6260172;28;20052;-57
2023/03/16 03:06:24;;;;;;;47.50;19.52;;;;;;;;;;6265436;28;20045;-58
2023/03/16 03:09:24;;;;;;;48.93;19.87;;;;;;;;;;6262591;28;20049;-57
2023/03/16 03:12:25;;;;;;;46.13;19.80;;;;;;;;;;6260308;28;20503;-55
2023/03/16 03:15:25;;;;;;;58.67;24.38;;;;;;;;;;6262552;28;20361;-61
2023/03/16 03:18:26;;;;;;;53.67;22.40;;;;;;;;;;6248016;28;20140;-54
2023/03/16 03:21:27;;;;;;;48.10;21.73;;;;;;;;;;6262853;28;20075;-59
2023/03/16 03:24:29;;;;;;;48.20;20.38;;;;;;;;;;6259409;28;20045;-52
2023/03/16 03:27:30;;;;;;;51.13;21.37;;;;;;;;;;6259764;28;20056;-59
2023/03/16 03:30:31;;;;;;;51.88;23.52;;;;;;;;;;6261318;28;20492;-60
2023/03/16 03:33:32;;;;;;;57.30;25.40;;;;;;;;;;6258960;28;20134;-53
2023/03/16 03:36:33;;;;;;;58.20;26.87;;;;;;;;;;6260619;28;20464;-57
2023/03/16 03:39:34;;;;;;;61.63;28.00;;;;;;;;;;6263304;28;20347;-58
2023/03/16 03:42:35;;;;;;;61.00;27.48;;;;;;;;;;6265735;28;20056;-52
2023/03/16 03:45:35;;;;;;;57.40;25.33;;;;;;;;;;6259876;28;20060;-53
2023/03/16 03:48:36;;;;;;;57.70;26.42;;;;;;;;;;6262574;28;20136;-59
2023/03/16 03:51:36;;;;;;;50.60;22.90;;;;;;;;;;6262669;28;20060;-57
2023/03/16 03:54:37;;;;;;;47.40;21.08;;;;;;;;;;6267825;28;20472;-57
2023/03/16 03:57:38;;;;;;;50.28;21.25;;;;;;;;;;6268064;28;20048;-60
2023/03/16 04:00:38;;;;;;;52.70;22.00;;;;;;;;;;6267129;28;20518;-60
2023/03/16 04:03:39;;;;;;;45.35;20.55;;;;;;;;;;6268047;28;20045;-59
2023/03/16 04:06:40;;;;;;;48.80;22.30;;;;;;;;;;6265835;28;20145;-54
2023/03/16 04:09:40;;;;;;;60.88;25.65;;;;;;;;;;6265004;28;20045;-55
2023/03/16 04:12:41;;;;;;;50.75;22.55;;;;;;;;;;6263813;28;20137;-57
2023/03/16 04:15:45;;;;;;;47.42;20.00;;;;;;;;;;6263711;28;20049;-56
2023/03/16 04:18:46;;;;;;;46.63;21.55;;;;;;;;;;6262519;28;20072;-59
2023/03/16 04:21:47;;;;;;;50.47;21.55;;;;;;;;;;6266002;28;20079;-60
2023/03/16 04:24:48;;;;;;;56.53;21.25;;;;;;;;;;6262890;28;20060;-55
2023/03/16 04:27:48;;;;;;;48.03;19.77;;;;;;;;;;6263965;28;20053;-58
2023/03/16 04:30:49;;;;;;;40.78;17.48;;;;;;;;;;6262840;28;20049;-59
2023/03/16 04:33:53;;;;;;;44.92;18.20;;;;;;;;;;6261752;28;20492;-60
2023/03/16 04:36:54;;;;;;;47.28;19.75;;;;;;;;;;6267338;28;20049;-57
2023/03/16 04:39:54;;;;;;;49.05;20.65;;;;;;;;;;6267600;28;20041;-58
2023/03/16 04:42:55;;;;;;;58.47;26.65;;;;;;;;;;6261854;28;20041;-58
2023/03/16 04:45:55;;;;;;;67.70;28.70;;;;;;;;;;6264525;28;20070;-60
2023/03/16 04:48:57;;;;;;;62.72;28.15;;;;;;;;;;6265435;28;20672;-57
2023/03/16 04:51:57;;;;;;;65.20;30.10;;;;;;;;;;6265532;28;20606;-60
2023/03/16 04:54:59;;;;;;;66.38;29.10;;;;;;;;;;6264732;28;20061;-57
2023/03/16 04:58:00;;;;;;;63.30;31.67;;;;;;;;;;6263648;28;20136;-57
2023/03/16 05:01:01;;;;;;;62.17;29.73;;;;;;;;;;6269018;28;20511;-55
2023/03/16 05:04:01;;;;;;;60.63;27.83;;;;;;;;;;6265998;28;20104;-59
2023/03/16 05:07:02;;;;;;;50.70;22.98;;;;;;;;;;6269481;28;20055;-60
2023/03/16 05:10:03;;;;;;;57.50;24.27;;;;;;;;;;6269365;28;20048;-56
2023/03/16 05:13:07;;;;;;;49.22;22.33;;;;;;;;;;6262016;28;20053;-61
2023/03/16 05:16:07;;;;;;;46.60;21.20;;;;;;;;;;6262680;28;20146;-60
2023/03/16 05:19:08;;;;;;;47.80;20.88;;;;;;;;;;6264533;28;20049;-60
2023/03/16 05:22:09;;;;;;;52.95;22.15;;;;;;;;;;6260481;28;20053;-59
2023/03/16 05:25:13;;;;;;;52.90;21.60;;;;;;;;;;6262625;28;20048;-58
2023/03/16 05:28:14;;;;;;;47.45;18.90;;;;;;;;;;6268895;28;20550;-53
2023/03/16 05:31:15;;;;;;;48.20;20.70;;;;;;;;;;6264326;28;20045;-58
2023/03/16 05:34:15;;;;;;;50.50;23.00;;;;;;;;;;6261530;28;20075;-60
2023/03/16 05:37:16;;;;;;;49.55;23.30;;;;;;;;;;6262896;28;20140;-54
2023/03/16 05:40:17;;;;;;;59.38;26.02;;;;;;;;;;6260700;28;20045;-58
2023/03/16 05:43:19;;;;;;;78.03;33.80;;;;;;;;;;6260102;28;20064;-60
2023/03/16 05:46:19;;;;;;;84.35;36.75;;;;;;;;;;6260620;28;20423;-60
2023/03/16 05:49:20;;;;;;;91.03;40.00;;;;;;;;;;6262502;28;20135;-65
2023/03/16 05:52:20;;;;;;;90.65;39.15;;;;;;;;;;6264726;28;20538;-59
2023/03/16 05:55:22;;;;;;;92.68;37.40;;;;;;;;;;6263923;28;20126;-59
2023/03/16 05:58:22;;;;;;;92.38;36.67;;;;;;;;;;6262176;28;20053;-57
2023/03/16 06:01:23;;;;;;;91.43;37.70;;;;;;;;;;6262322;28;20542;-59
2023/03/16 06:04:23;;;;;;;89.13;40.28;;;;;;;;;;6258327;28;20048;-59
2023/03/16 06:07:24;;;;;;;88.15;39.55;;;;;;;;;;6262287;28;20072;-60
2023/03/16 06:10:25;;;;;;;95.03;41.15;;;;;;;;;;6264891;28;20504;-60
2023/03/16 06:13:26;;;;;;;96.30;42.03;;;;;;;;;;6265797;28;20090;-59
2023/03/16 06:16:26;;;;;;;93.55;39.50;;;;;;;;;;6260863;28;20415;-59
2023/03/16 06:19:27;;;;;;;98.13;39.15;;;;;;;;;;6259565;28;20045;-58
2023/03/16 06:22:29;;;;;;;80.97;34.83;;;;;;;;;;6261277;28;20586;-54
2023/03/16 06:25:30;;;;;;;82.95;34.85;;;;;;;;;;6260606;28;20083;-55
2023/03/16 06:28:30;;;;;;;88.22;35.17;;;;;;;;;;6263702;28;20119;-59
2023/03/16 06:31:32;;;;;;;86.40;36.50;;;;;;;;;;6261175;28;20056;-60
2023/03/16 06:34:33;;;;;;;77.32;34.35;;;;;;;;;;6259256;28;20475;-61
2023/03/16 06:37:34;;;;;;;70.13;28.38;;;;;;;;;;6261892;28;20053;-59
2023/03/16 06:40:34;;;;;;;72.45;28.00;;;;;;;;;;6262629;28;20644;-58
2023/03/16 06:43:35;;;;;;;62.10;27.05;;;;;;;;;;6263537;28;20091;-60
2023/03/16 06:46:36;;;;;;;60.35;26.33;;;;;;;;;;6262402;28;20490;-59
2023/03/16 06:49:37;;;;;;;61.23;25.87;;;;;;;;;;6261177;28;20190;-59
2023/03/16 06:52:38;;;;;;;57.97;24.40;;;;;;;;;;6260656;28;20095;-58
2023/03/16 06:55:39;;;;;;;51.75;24.35;;;;;;;;;;6259502;28;20407;-59
2023/03/16 06:58:40;;;;;;;51.88;23.25;;;;;;;;;;6260052;28;20063;-59
2023/03/16 07:01:43;;;;;;;53.97;24.17;;;;;;;;;;6258501;28;20052;-59
2023/03/16 07:04:43;;;;;;;54.22;23.52;;;;;;;;;;6257093;28;20056;-59
2023/03/16 07:07:44;;;;;;;54.38;24.45;;;;;;;;;;6261011;28;20041;-60
2023/03/16 07:10:46;;;;;;;48.33;23.52;;;;;;;;;;6261388;28;20107;-60
2023/03/16 07:13:47;;;;;;;50.33;23.00;;;;;;;;;;6258401;28;20611;-60
2023/03/16 07:16:47;;;;;;;52.45;24.13;;;;;;;;;;6260741;28;20079;-60
2023/03/16 07:19:48;;;;;;;49.25;23.13;;;;;;;;;;6261265;28;20041;-60
2023/03/16 07:22:49;;;;;;;52.30;24.02;;;;;;;;;;6258377;28;20045;-58
2023/03/16 07:25:51;;;;;;;53.35;23.52;;;;;;;;;;6261756;28;20680;-59
2023/03/16 07:28:52;;;;;;;55.53;24.83;;;;;;;;;;6266608;28;20106;-59
2023/03/16 07:31:54;;;;;;;56.55;25.65;;;;;;;;;;6264354;28;20072;-56
2023/03/16 07:34:56;;;;;;;54.20;22.90;;;;;;;;;;6262025;28;20053;-58
2023/03/16 07:38:00;;;;;;;45.53;23.25;;;;;;;;;;6281483;23;20056;-58
2023/03/16 07:41:02;;;;;;;42.55;20.77;;;;;;;;;;6265155;28;20415;-59
2023/03/16 07:44:04;;;;;;;40.88;19.98;;;;;;;;;;6265651;28;20047;-59
2023/03/16 07:47:05;;;;;;;44.20;20.00;;;;;;;;;;6265954;28;20044;-60
2023/03/16 07:50:08;;;;;;;49.13;20.70;;;;;;;;;;6261659;28;20049;-58
2023/03/16 07:53:09;;;;;;;46.55;22.73;;;;;;;;;;6263217;28;20055;-59
2023/03/16 07:56:11;;;;;;;48.70;22.27;;;;;;;;;;6263730;28;20057;-55
2023/03/16 07:59:11;;;;;;;48.17;20.85;;;;;;;;;;6262829;28;20052;-60
2023/03/16 08:02:15;;;;;;;42.58;20.58;;;;;;;;;;6267430;28;20044;-59
2023/03/16 08:05:16;;;;;;;44.90;21.83;;;;;;;;;;6264174;28;20073;-56
2023/03/16 08:08:18;;;;;;;40.92;20.25;;;;;;;;;;6264676;28;20048;-58
2023/03/16 08:11:23;;;;;;;46.22;21.65;;;;;;;;;;6262045;28;20064;-59
2023/03/16 08:14:28;;;;;;;44.58;21.45;;;;;;;;;;6261946;28;20057;-60
2023/03/16 08:17:30;;;;;;;45.65;21.52;;;;;;;;;;6261171;28;20084;-59
2023/03/16 08:20:31;;;;;;;47.58;21.95;;;;;;;;;;6262710;28;20079;-58
2023/03/16 08:23:32;;;;;;;44.70;21.50;;;;;;;;;;6263829;28;20540;-59
2023/03/16 08:26:36;;;;;;;35.63;17.13;;;;;;;;;;6263864;28;20412;-58
2023/03/16 08:29:37;;;;;;;32.63;15.65;;;;;;;;;;6264113;28;20033;-58
2023/03/16 08:32:40;;;;;;;29.58;14.27;;;;;;;;;;6262618;28;20371;-58
2023/03/16 08:35:43;;;;;;;29.25;15.35;;;;;;;;;;6264751;28;20047;-59
2023/03/16 08:38:45;;;;;;;29.38;13.13;;;;;;;;;;6263117;28;20684;-57
2023/03/16 08:41:47;;;;;;;26.52;13.73;;;;;;;;;;6261698;28;20044;-58
2023/03/16 08:44:54;;;;;;;31.80;14.40;;;;;;;;;;6263085;28;20383;-58
2023/03/16 08:47:54;;;;;;;28.23;13.80;;;;;;;;;;6264084;28;20037;-60
2023/03/16 08:50:56;;;;;;;30.80;13.95;;;;;;;;;;6263408;28;20085;-58
2023/03/16 08:53:58;;;;;;;33.65;14.18;;;;;;;;;;6263388;28;20098;-59
2023/03/16 08:57:00;;;;;;;30.50;14.77;;;;;;;;;;6263721;28;20121;-58
2023/03/16 09:00:02;;;;;;;30.63;14.93;;;;;;;;;;6262364;28;20049;-59
2023/03/16 09:03:04;;;;;;;35.10;15.80;;;;;;;;;;6259424;28;20068;-59
2023/03/16 09:06:09;;;;;;;30.80;12.88;;;;;;;;;;6260345;28;20072;-59
2023/03/16 09:09:10;;;;;;;31.25;12.60;;;;;;;;;;6259102;28;20037;-59
2023/03/16 09:12:11;;;;;;;20.13;9.27;;;;;;;;;;6261972;28;20575;-59
2023/03/16 09:15:13;;;;;;;17.88;9.40;;;;;;;;;;6264869;28;20393;-59
2023/03/16 09:18:17;;;;;;;22.17;10.02;;;;;;;;;;6267939;28;20056;-56
2023/03/16 09:21:18;;;;;;;21.75;9.48;;;;;;;;;;6265936;28;20064;-56
2023/03/16 09:24:19;;;;;;;23.65;9.82;;;;;;;;;;6266372;28;20064;-55
2023/03/16 09:27:21;;;;;;;;;;;;;;;;;;6268579;28;20048;-56
2023/03/16 09:30:22;;;;;;;21.38;10.38;;;;;;;;;;6267661;28;20379;-59
2023/03/16 09:33:30;;;;;;;14.18;7.15;;;;;;;;;;6264278;28;20041;-57
2023/03/16 09:36:32;;;;;;;16.67;7.68;;;;;;;;;;6267632;28;20053;-57
2023/03/16 09:39:33;;;;;;;13.30;6.50;;;;;;;;;;6268625;28;20080;-59
2023/03/16 09:42:45;;;;;;;18.98;8.38;;;;;;;;;;6259430;28;20053;-58
2023/03/16 09:45:56;;;;;;;12.38;5.90;;;;;;;;;;6262757;28;20446;-57
2023/03/16 09:48:58;;;;;;;16.95;6.95;;;;;;;;;;6261103;28;20480;-58
2023/03/16 09:52:20;;;;;;;14.60;7.05;;;;;;;;;;6261881;28;20154;-57
2023/03/16 09:55:33;;;;;;;14.77;7.18;;;;;;;;;;6259897;28;20041;-56
2023/03/16 09:58:35;;;;;;;14.98;6.05;;;;;;;;;;6259587;28;20051;-56
2023/03/16 10:01:51;;;;;;;11.88;4.75;;;;;;;;;;6261046;28;20041;-57
2023/03/16 10:05:12;;;;;;;13.15;5.70;;;;;;;;;;6261641;28;20045;-58
2023/03/16 10:08:23;;;;;;;10.60;4.80;;;;;;;;;;6256899;28;20060;-56
2023/03/16 10:11:32;;;;;;;9.48;4.82;;;;;;;;;;6260454;28;20072;-58
2023/03/16 10:14:45;;;;;;;9.27;4.57;;;;;;;;;;6258119;28;20049;-57
2023/03/16 10:17:51;;;;;;;11.65;4.95;;;;;;;;;;6260178;28;20170;-58
2023/03/16 10:20:54;;;;;;;12.63;6.00;;;;;;;;;;6260972;28;20488;-58
2023/03/16 10:24:00;;;;;;;12.07;5.70;;;;;;;;;;6261267;28;20052;-56
2023/03/16 10:27:03;;;;;;;13.18;5.32;;;;;;;;;;6259682;28;20076;-58
2023/03/16 10:30:36;;;;;;;10.00;4.85;;;;;;;;;;6259550;28;20207;-58
2023/03/16 10:33:38;;;;;;;12.67;5.70;;;;;;;;;;6251722;28;20053;-57
2023/03/16 10:36:43;;;;;;;13.07;5.15;;;;;;;;;;6259870;28;20302;-57
2023/03/16 10:39:48;;;;;;;11.25;5.20;;;;;;;;;;6262032;28;20049;-58
2023/03/16 10:42:48;;;;;;;13.02;5.72;;;;;;;;;;6257346;28;20060;-58
2023/03/16 10:45:50;;;;;;;8.57;4.38;;;;;;;;;;6260519;28;20500;-58
2023/03/16 10:49:00;;;;;;;10.13;5.30;;;;;;;;;;6261956;28;20119;-59
2023/03/16 10:52:12;;;;;;;10.52;5.45;;;;;;;;;;6260217;28;20041;-56
2023/03/16 10:55:23;;;;;;;11.75;6.32;;;;;;;;;;6257981;28;20044;-58
2023/03/16 10:58:28;;;;;;;10.57;5.35;;;;;;;;;;6259756;28;20132;-56
2023/03/16 11:01:30;;;;;;;11.90;5.22;;;;;;;;;;6260803;28;20107;-58
2023/03/16 11:04:34;;;;;;;8.85;4.30;;;;;;;;;;6258463;28;20547;-55
2023/03/16 11:07:36;;;;;;;8.68;4.30;;;;;;;;;;6259172;28;20049;-58
2023/03/16 11:10:43;;;;;;;7.75;4.20;;;;;;;;;;6259961;28;20045;-56
2023/03/16 11:13:47;;;;;;;12.65;4.30;;;;;;;;;;6255754;28;20052;-59
2023/03/16 11:17:11;;;;;;;11.48;4.78;;;;;;;;;;6259663;28;20040;-59
2023/03/16 11:20:32;;;;;;;8.32;4.40;;;;;;;;;;6259680;28;20044;-57
2023/03/16 11:23:40;;;;;;;9.65;5.03;;;;;;;;;;6258430;28;20129;-59
2023/03/16 11:26:44;;;;;;;8.10;3.92;;;;;;;;;;6259488;28;20103;-59
2023/03/16 11:29:57;;;;;;;9.30;4.38;;;;;;;;;;6258967;28;20075;-59
2023/03/16 11:32:59;;;;;;;8.63;4.22;;;;;;;;;;6258600;28;20063;-58
2023/03/16 11:36:28;;;;;;;10.60;4.70;;;;;;;;;;6258262;28;20056;-58
2023/03/16 11:40:13;;;;;;;9.18;4.22;;;;;;;;;;6257795;28;20049;-58
2023/03/16 11:43:32;;;;;;;8.13;4.25;;;;;;;;;;6250471;28;20052;-56
2023/03/16 11:46:42;;;;;;;10.80;4.15;;;;;;;;;;6262019;28;20053;-58
2023/03/16 11:49:57;;;;;;;8.95;3.63;;;;;;;;;;6261389;28;20563;-58
2023/03/16 11:53:32;;;;;;;10.85;4.80;;;;;;;;;;6258953;28;20487;-57
2023/03/16 11:56:42;;;;;;;8.55;4.40;;;;;;;;;;6258916;28;20090;-59
2023/03/16 11:59:52;;;;;;;8.88;3.67;;;;;;;;;;6258640;28;20055;-57
2023/03/16 12:03:11;;;;;;;10.05;3.58;;;;;;;;;;6259376;28;20663;-57
2023/03/16 12:06:39;;;;;;;9.38;3.53;;;;;;;;;;6255043;28;20408;-59
2023/03/16 12:10:06;;;;;;;9.30;3.78;;;;;;;;;;6260727;28;20465;-59
2023/03/16 12:13:29;;;;;;;10.55;4.47;;;;;;;;;;6259979;28;20037;-59
2023/03/16 12:16:47;;;;;;;7.50;2.95;;;;;;;;;;6263624;28;20106;-54
2023/03/16 12:20:06;;;;;;;7.10;2.00;;;;;;;;;;6263594;28;20044;-57
2023/03/16 12:23:21;;;;;;;8.40;2.72;;;;;;;;;;6263917;28;20053;-58
2023/03/16 12:26:27;;;;;;;;;;;;;;;;;;6263022;28;20060;-58
2023/03/16 12:29:48;;;;;;;8.60;3.60;;;;;;;;;;6261389;28;20284;-59
2023/03/16 12:33:15;;;;;;;6.97;3.10;;;;;;;;;;6261074;28;20049;-58
2023/03/16 12:36:38;;;;;;;8.90;3.33;;;;;;;;;;6266056;28;20053;-58
2023/03/16 12:40:06;;;;;;;6.82;3.05;;;;;;;;;;6261859;28;20056;-57
2023/03/16 12:43:25;;;;;;;6.97;3.10;;;;;;;;;;6260982;28;20047;-60
2023/03/16 12:46:32;;;;;;;7.20;3.75;;;;;;;;;;6265179;28;20133;-58
2023/03/16 12:49:42;;;;;;;11.10;3.47;;;;;;;;;;6261561;28;20102;-59
2023/03/16 12:52:48;;;;;;;7.30;3.13;;;;;;;;;;6262488;28;20703;-57
2023/03/16 12:55:49;;;;;;;5.78;2.70;;;;;;;;;;6259039;28;20049;-59
2023/03/16 12:58:54;;;;;;;12.93;3.40;;;;;;;;;;6260780;28;20053;-57
2023/03/16 13:01:58;;;;;;;5.68;3.05;;;;;;;;;;6261865;28;20045;-58
2023/03/16 13:05:12;;;;;;;8.00;2.60;;;;;;;;;;6247586;28;20045;-58
2023/03/16 13:08:16;;;;;;;6.55;2.60;;;;;;;;;;6259526;28;20098;-56
2023/03/16 13:11:18;;;;;;;8.10;2.80;;;;;;;;;;6257475;28;20057;-53
2023/03/16 13:14:32;;;;;;;8.68;2.90;;;;;;;;;;6257465;28;20091;-57
2023/03/16 13:17:34;;;;;;;15.00;4.70;;;;;;;;;;6251682;28;20051;-56
2023/03/16 13:20:59;;;;;;;9.00;3.00;;;;;;;;;;6253934;28;20141;-56
2023/03/16 13:24:20;;;;;;;7.45;2.72;;;;;;;;;;6249925;28;20063;-59
2023/03/16 13:27:27;;;;;;;6.83;2.40;;;;;;;;;;6247991;28;20048;-59
2023/03/16 13:30:32;;;;;;;5.60;2.50;;;;;;;;;;6248594;28;20427;-52
2023/03/16 13:33:37;;;;;;;7.18;2.80;;;;;;;;;;6249686;28;20053;-57
2023/03/16 13:36:38;;;;;;;9.30;3.00;;;;;;;;;;6250653;28;20500;-57
2023/03/16 13:39:39;;;;;;;9.77;3.00;;;;;;;;;;6248522;28;20056;-58
2023/03/16 13:42:40;;;;;;;7.28;2.95;;;;;;;;;;6251048;28;20446;-57
2023/03/16 13:45:42;;;;;;;8.45;2.60;;;;;;;;;;6251013;28;20051;-58
2023/03/16 13:48:46;;;;;;;7.25;2.83;;;;;;;;;;6246871;28;20064;-57
2023/03/16 13:51:48;;;;;;;7.43;2.85;;;;;;;;;;6249971;28;20045;-56
2023/03/16 13:54:51;;;;;;;8.10;2.63;;;;;;;;;;6249719;28;20685;-57
2023/03/16 13:57:52;;;;;;;5.68;2.60;;;;;;;;;;6249330;28;20048;-57
2023/03/16 14:00:58;;;;;;;7.32;3.30;;;;;;;;;;6250075;28;20052;-58
2023/03/16 14:04:07;;;;;;;5.90;2.95;;;;;;;;;;6249610;28;20049;-59
2023/03/16 14:07:15;;;;;;;6.70;2.80;;;;;;;;;;6248381;28;20051;-58
2023/03/16 14:10:17;;;;;;;6.95;2.42;;;;;;;;;;6247565;28;20760;-58
2023/03/16 14:13:26;;;;;;;5.22;2.30;;;;;;;;;;6249205;28;20055;-57
2023/03/16 14:16:30;;;;;;;8.63;2.88;;;;;;;;;;6248346;28;20472;-55
2023/03/16 14:19:48;;;;;;;7.07;2.85;;;;;;;;;;6249460;28;20148;-58
2023/03/16 14:22:51;;;;;;;7.15;2.80;;;;;;;;;;6249093;28;20045;-57
2023/03/16 14:25:52;;;;;;;6.18;2.35;;;;;;;;;;6249245;28;20059;-53
2023/03/16 14:29:14;;;;;;;8.48;3.15;;;;;;;;;;6248439;28;20041;-59
2023/03/16 14:32:25;;;;;;;8.50;3.22;;;;;;;;;;6248418;28;20053;-58
2023/03/16 14:35:29;;;;;;;9.32;2.92;;;;;;;;;;6245327;28;20067;-57
2023/03/16 14:38:34;;;;;;;8.45;3.50;;;;;;;;;;6246008;28;20057;-59
2023/03/16 14:41:37;;;;;;;7.88;3.30;;;;;;;;;;6248033;28;20068;-57
2023/03/16 14:44:37;;;;;;;8.40;3.30;;;;;;;;;;6248288;28;20292;-55
2023/03/16 14:47:42;;;;;;;8.07;3.05;;;;;;;;;;6248666;28;20056;-58
2023/03/16 14:50:43;;;;;;;10.15;3.80;;;;;;;;;;6246810;28;20084;-54
2023/03/16 14:53:44;;;;;;;8.73;3.38;;;;;;;;;;6247621;28;20055;-58
2023/03/16 14:56:57;;;;;;;9.07;3.90;;;;;;;;;;6243270;28;20769;-57
2023/03/16 14:59:57;;;;;;;11.15;3.65;;;;;;;;;;6245970;28;20492;-56
2023/03/16 15:03:05;;;;;;;9.13;3.28;;;;;;;;;;6249265;28;20110;-57
2023/03/16 15:06:05;;;;;;;10.43;4.03;;;;;;;;;;6247865;28;20803;-56
2023/03/16 15:09:12;;;;;;;10.57;3.40;;;;;;;;;;6249574;28;20049;-56
2023/03/16 15:12:15;;;;;;;8.80;3.20;;;;;;;;;;6248934;28;20049;-56
2023/03/16 15:15:18;;;;;;;8.68;3.20;;;;;;;;;;6247877;28;20136;-57
2023/03/16 15:18:18;;;;;;;10.13;3.30;;;;;;;;;;6246044;28;20110;-55
2023/03/16 15:21:25;;;;;;;13.73;3.50;;;;;;;;;;6248392;28;20044;-57
2023/03/16 15:24:27;;;;;;;6.93;2.90;;;;;;;;;;6247873;28;20091;-57
2023/03/16 15:27:33;;;;;;;7.95;3.05;;;;;;;;;;6246275;28;20045;-57
2023/03/16 15:30:34;;;;;;;7.20;3.03;;;;;;;;;;6249267;28;20353;-59
2023/03/16 15:33:35;;;;;;;8.85;2.85;;;;;;;;;;6250205;28;20093;-56
2023/03/16 15:36:36;;;;;;;7.30;3.05;;;;;;;;;;6247083;28;20061;-58
2023/03/16 15:39:36;;;;;;;11.00;3.38;;;;;;;;;;6247364;28;20045;-56
2023/03/16 15:42:37;;;;;;;9.30;3.28;;;;;;;;;;6250226;28;20049;-61
2023/03/16 15:45:38;;;;;;;10.23;3.72;;;;;;;;;;6249230;28;20048;-57
2023/03/16 15:48:39;;;;;;;10.18;3.63;;;;;;;;;;6249409;28;20118;-56
2023/03/16 15:51:40;;;;;;;10.82;3.50;;;;;;;;;;6255156;28;20053;-57
2023/03/16 15:54:41;;;;;;;9.32;3.90;;;;;;;;;;6254182;28;20428;-59
2023/03/16 15:57:42;;;;;;;11.15;3.65;;;;;;;;;;6249352;28;20045;-57
2023/03/16 16:00:42;;;;;;;10.65;3.17;;;;;;;;;;6253244;28;20053;-56
2023/03/16 16:03:43;;;;;;;8.45;3.10;;;;;;;;;;6254378;28;20060;-55
2023/03/16 16:06:45;;;;;;;7.38;2.85;;;;;;;;;;6254963;28;20084;-58
2023/03/16 16:09:46;;;;;;;11.45;3.25;;;;;;;;;;6255585;28;20071;-53
2023/03/16 16:12:52;;;;;;;12.13;3.95;;;;;;;;;;6253329;28;20099;-55
2023/03/16 16:15:54;;;;;;;25.40;7.65;;;;;;;;;;6257737;28;20540;-55
2023/03/16 16:18:55;;;;;;;31.77;10.77;;;;;;;;;;6249353;28;20499;-54
2023/03/16 16:21:56;;;;;;;31.05;10.70;;;;;;;;;;6257750;28;20053;-57
2023/03/16 16:24:57;;;;;;;19.58;7.13;;;;;;;;;;6259764;28;20069;-56
2023/03/16 16:27:57;;;;;;;51.15;17.63;;;;;;;;;;6253196;28;20049;-60
2023/03/16 16:31:00;;;;;;;13.15;6.13;;;;;;;;;;6257117;28;20225;-58
2023/03/16 16:34:00;;;;;;;;;;;;;;;;;;6262285;28;20049;-59
2023/03/16 16:37:01;;;;;;;11.85;4.00;;;;;;;;;;6257181;28;21234;-59
2023/03/16 16:40:02;;;;;;;15.18;4.57;;;;;;;;;;6261062;28;21029;-58
2023/03/16 16:43:05;;;;;;;9.73;3.92;;;;;;;;;;6258762;28;20052;-57
2023/03/16 16:46:12;;;;;;;11.52;4.95;;;;;;;;;;6259281;28;20052;-56
2023/03/16 16:49:18;;;;;;;15.82;4.68;;;;;;;;;;6256650;28;20061;-55
2023/03/16 16:52:19;;;;;;;8.40;2.38;;;;;;;;;;6259293;28;20115;-56
2023/03/16 16:55:21;;;;;;;13.50;2.97;;;;;;;;;;6260208;28;20037;-53
2023/03/16 16:58:22;;;;;;;14.73;4.03;;;;;;;;;;6256892;28;20130;-55
2023/03/16 17:01:29;;;;;;;11.20;4.90;;;;;;;;;;6260319;28;20048;-52
2023/03/16 17:04:29;;;;;;;13.45;5.60;;;;;;;;;;6261325;28;20090;-51
2023/03/16 17:07:30;;;;;;;14.18;6.28;;;;;;;;;;6257903;28;20175;-50
2023/03/16 17:10:32;;;;;;;17.60;7.40;;;;;;;;;;6255804;28;20053;-55
2023/03/16 17:13:39;;;;;;;17.88;6.68;;;;;;;;;;6259881;28;20462;-55
2023/03/16 17:16:39;;;;;;;21.77;8.43;;;;;;;;;;6259577;28;20057;-51
2023/03/16 17:19:45;;;;;;;18.88;6.65;;;;;;;;;;6257136;28;20067;-51
2023/03/16 17:22:50;;;;;;;27.00;10.32;;;;;;;;;;6259176;28;20408;-55
2023/03/16 17:25:52;;;;;;;23.50;9.23;;;;;;;;;;6260823;28;20055;-51
2023/03/16 17:28:58;;;;;;;25.08;8.57;;;;;;;;;;6257535;28;20450;-50
2023/03/16 17:32:02;;;;;;;24.52;9.07;;;;;;;;;;6258825;28;20103;-56
2023/03/16 17:35:12;;;;;;;19.35;7.72;;;;;;;;;;6260226;28;20136;-54
2023/03/16 17:38:16;;;;;;;45.92;14.75;;;;;;;;;;6257307;28;20199;-52
2023/03/16 17:41:25;;;;;;;43.22;13.82;;;;;;;;;;6257156;28;20480;-57
2023/03/16 17:44:31;;;;;;;59.90;18.63;;;;;;;;;;6259189;28;20041;-56
2023/03/16 17:47:37;;;;;;;37.03;12.60;;;;;;;;;;6255805;28;20064;-57
2023/03/16 17:50:38;;;;;;;45.92;17.08;;;;;;;;;;6258869;28;20052;-52
2023/03/16 17:53:39;;;;;;;56.20;19.08;;;;;;;;;;6257854;28;20059;-55
2023/03/16 17:56:40;;;;;;;61.20;19.35;;;;;;;;;;6258734;28;20148;-55
2023/03/16 17:59:41;;;;;;;59.75;20.20;;;;;;;;;;6258015;28;20052;-55
2023/03/16 18:02:53;;;;;;;56.67;21.88;;;;;;;;;;6251829;28;21140;-56
2023/03/16 18:05:54;;;;;;;62.53;23.77;;;;;;;;;;6256152;28;20053;-54